Terminal Aerodrome Forecast
Issued by NWS Rapid City, SD

Home | Current Version | Previous Version | Text Only | Print | Product List | Glossary Off
Versions: 1 2 3 4 5 6 7 8 9 10 11 12 13 14 15 16 17 18

000
FTUS43 KUNR 271720
TAFRAP
TAF
KRAP 271720Z 2718/2818 19015G25KT P6SM SCT150
     FM272000 32014G24KT P6SM SCT060 SCT150
      TEMPO 2800/2804 VRB40KT 5SM TSRA BKN050CB
     FM280600 33012KT P6SM SCT150=

USA.gov is the U.S. government's official web portal to all federal, state and local government web resources and services.